Time;durP1;ratioP1;P1;durP2;ratioP2;P2;SDS_P1;SDS_P2;PMS_P1;PMS_P2;Temp;Humidity;BMP_temperature;BMP_pressure;BME280_temperature;BME280_humidity;BME280_pressure;Samples;Min_cycle;Max_cycle;Signal;HPM_P1;HPM_P2
2022/07/25 00:01:03;;;;;;;;;16.50;15.00;;;;;27.96;38.96;99028.38;5055015;28;45440;-57
2022/07/25 00:03:28;;;;;;;;;16.75;15.25;;;;;27.95;38.57;99026.69;5052109;28;45414;-58
2022/07/25 00:05:54;;;;;;;;;13.25;12.25;;;;;27.97;38.36;99030.09;5055410;28;45525;-57
2022/07/25 00:08:19;;;;;;;;;14.75;13.75;;;;;27.97;38.39;99021.94;5038922;28;46453;-57
2022/07/25 00:10:44;;;;;;;;;15.50;13.25;;;;;27.94;38.28;99019.59;5045372;28;45587;-61
2022/07/25 00:13:10;;;;;;;;;14.00;14.00;;;;;27.92;38.59;99025.19;5054476;28;46138;-58
2022/07/25 00:15:35;;;;;;;;;13.00;12.00;;;;;27.87;38.43;99022.13;5042511;28;45501;-58
2022/07/25 00:18:01;;;;;;;;;10.75;10.75;;;;;27.81;38.53;99028.28;5050435;28;45888;-58
2022/07/25 00:20:26;;;;;;;;;15.75;15.00;;;;;27.76;38.82;99025.22;5053957;28;45435;-57
2022/07/25 00:22:51;;;;;;;;;15.25;15.25;;;;;27.71;38.97;99025.72;5054559;28;45446;-57
2022/07/25 00:25:17;;;;;;;;;11.25;10.75;;;;;27.67;38.88;99028.94;5054994;28;45361;-59
2022/07/25 00:27:42;;;;;;;;;10.50;10.50;;;;;27.60;39.05;99030.69;5054364;28;45484;-57
2022/07/25 00:30:08;;;;;;;;;15.50;15.00;;;;;27.54;38.94;99026.75;5054419;28;45377;-57
2022/07/25 00:32:34;;;;;;;;;11.50;11.50;;;;;27.49;38.98;99025.56;5054175;28;45284;-58
2022/07/25 00:34:59;;;;;;;;;13.50;13.50;;;;;27.42;38.97;99025.41;5054189;28;45540;-58
2022/07/25 00:37:24;;;;;;;;;15.50;14.25;;;;;27.35;39.36;99022.53;5054370;28;46130;-57
2022/07/25 00:39:50;;;;;;;;;16.00;12.75;;;;;27.28;39.09;99018.84;5045770;28;45361;-57
2022/07/25 00:42:15;;;;;;;;;13.75;13.00;;;;;27.25;39.69;99026.44;5050247;28;45613;-57
2022/07/25 00:44:41;;;;;;;;;12.00;12.00;;;;;27.18;40.11;99026.25;5038455;28;45582;-57
2022/07/25 00:47:06;;;;;;;;;14.25;14.25;;;;;27.14;39.57;99021.38;5050046;28;46407;-53
2022/07/25 00:49:32;;;;;;;;;16.50;15.75;;;;;27.08;40.27;99026.44;5055812;28;45487;-52
2022/07/25 00:51:57;;;;;;;;;14.75;13.75;;;;;27.00;40.08;99015.59;5058513;28;45356;-53
2022/07/25 00:54:23;;;;;;;;;17.25;14.25;;;;;27.00;40.17;99017.47;5055637;28;45567;-53
2022/07/25 00:56:49;;;;;;;;;17.00;15.00;;;;;26.96;40.11;99027.81;5058295;28;45433;-54
2022/07/25 00:59:16;;;;;;;;;14.25;14.25;;;;;26.93;40.67;99032.66;5043593;28;45373;-52
2022/07/25 01:01:41;;;;;;;;;15.75;14.75;;;;;26.87;40.40;99023.34;5037651;28;45411;-53
2022/07/25 01:04:07;;;;;;;;;16.00;15.00;;;;;26.84;40.46;99022.84;5038096;28;45476;-54
2022/07/25 01:06:33;;;;;;;;;13.50;12.75;;;;;26.80;40.52;99022.34;5037999;28;46499;-53
2022/07/25 01:09:00;;;;;;;;;13.00;11.50;;;;;26.76;40.73;99032.66;5038210;28;45294;-54
2022/07/25 01:11:26;;;;;;;;;15.00;15.00;;;;;26.74;40.83;99031.97;5038069;28;45365;-50
2022/07/25 01:13:51;;;;;;;;;17.25;16.50;;;;;26.72;41.50;99028.56;5038058;28;45608;-53
2022/07/25 01:16:17;;;;;;;;;14.00;13.25;;;;;26.73;41.21;99026.72;5051990;28;46449;-53
2022/07/25 01:18:43;;;;;;;;;14.75;14.00;;;;;26.75;41.28;99027.41;5057717;28;45459;-53
2022/07/25 01:21:09;;;;;;;;;18.25;17.00;;;;;26.75;41.96;99030.09;5044515;28;45411;-53
2022/07/25 01:23:35;;;;;;;;;17.50;17.25;;;;;26.65;42.06;99027.53;5048425;28;45606;-54
2022/07/25 01:26:00;;;;;;;;;16.75;16.75;;;;;26.58;42.73;99020.25;5037382;28;45416;-53
2022/07/25 01:28:26;;;;;;;;;17.25;16.25;;;;;26.52;42.38;99023.63;5037742;28;45491;-52
2022/07/25 01:30:51;;;;;;;;;16.25;16.00;;;;;26.49;42.27;99029.34;5037977;28;45424;-52
2022/07/25 01:33:19;;;;;;;;;15.50;14.00;;;;;26.48;42.55;99024.97;5036711;28;45428;-54
2022/07/25 01:35:45;;;;;;;;;15.50;14.25;;;;;26.49;42.54;99027.50;5052987;28;45521;-53
2022/07/25 01:38:12;;;;;;;;;16.50;15.00;;;;;26.52;42.12;99026.31;5057367;28;45370;-57
2022/07/25 01:40:38;;;;;;;;;15.25;14.25;;;;;26.54;42.35;99024.31;5057774;28;45456;-58
2022/07/25 01:43:04;;;;;;;;;17.25;16.75;;;;;26.54;42.89;99024.31;5057171;28;45491;-52
2022/07/25 01:45:29;;;;;;;;;16.25;15.00;;;;;26.53;42.87;99031.56;5054488;28;45600;-53
2022/07/25 01:47:55;;;;;;;;;14.75;14.75;;;;;26.54;42.67;99030.56;5056873;28;45357;-54
2022/07/25 01:50:20;;;;;;;;;14.75;14.75;;;;;26.55;42.77;99031.41;5041436;28;45376;-53
2022/07/25 01:52:46;;;;;;;;;18.25;17.25;;;;;26.53;42.80;99026.16;5041218;28;45354;-54
2022/07/25 01:55:11;;;;;;;;;21.67;20.00;;;;;26.54;42.57;99033.25;5041389;28;46120;-53
2022/07/25 01:57:38;;;;;;;;;21.75;20.75;;;;;26.55;42.28;99034.09;5037266;28;45423;-53
2022/07/25 02:00:06;;;;;;;;;18.50;17.00;;;;;26.55;42.29;99028.69;5036584;28;45583;-53
2022/07/25 02:02:32;;;;;;;;;17.75;17.00;;;;;26.56;42.70;99030.41;5037094;28;45310;-54
2022/07/25 02:04:57;;;;;;;;;16.25;16.00;;;;;26.55;42.77;99026.84;5036848;28;46251;-54
2022/07/25 02:07:22;;;;;;;;;17.25;17.00;;;;;26.47;43.17;99034.94;5037100;28;45535;-54
2022/07/25 02:09:48;;;;;;;;;14.75;14.50;;;;;26.40;42.97;99042.84;5036903;28;45399;-54
2022/07/25 02:12:14;;;;;;;;;16.75;16.75;;;;;26.32;42.79;99042.81;5037065;28;45511;-54
2022/07/25 02:14:39;;;;;;;;;14.75;14.75;;;;;26.22;42.79;99038.53;5036444;28;45702;-53
2022/07/25 02:17:05;;;;;;;;;17.50;16.00;;;;;26.12;42.85;99037.81;5036825;28;45424;-52
2022/07/25 02:19:30;;;;;;;;;16.75;16.25;;;;;26.06;43.08;99040.16;5036900;28;45393;-53
2022/07/25 02:21:56;;;;;;;;;16.25;15.25;;;;;26.03;43.17;99043.16;5036501;28;45408;-53
2022/07/25 02:24:21;;;;;;;;;15.50;14.25;;;;;26.01;42.86;99036.22;5036712;28;46161;-53
2022/07/25 02:26:47;;;;;;;;;16.00;14.75;;;;;26.00;42.85;99040.78;5036864;28;45381;-54
2022/07/25 02:29:12;;;;;;;;;15.50;14.50;;;;;26.00;42.32;99042.66;5036324;28;45413;-53
2022/07/25 02:31:37;;;;;;;;;15.25;15.25;;;;;26.00;42.00;99040.78;5036237;28;45330;-55
2022/07/25 02:34:03;;;;;;;;;15.00;14.50;;;;;26.00;42.42;99035.38;5037893;28;47215;-53
2022/07/25 02:36:29;;;;;;;;;17.75;14.50;;;;;25.96;42.88;99036.75;5056833;28;45378;-53
2022/07/25 02:38:54;;;;;;;;;17.00;15.50;;;;;25.91;42.78;99032.81;5056544;28;45323;-50
2022/07/25 02:41:19;;;;;;;;;19.50;18.00;;;;;25.90;43.12;99039.22;5056852;28;45366;-52
2022/07/25 02:43:45;;;;;;;;;13.75;13.75;;;;;25.90;42.95;99034.66;5056507;28;46230;-53
2022/07/25 02:46:10;;;;;;;;;18.50;14.75;;;;;25.89;42.78;99032.97;5056080;28;45507;-54
2022/07/25 02:48:36;;;;;;;;;17.50;14.75;;;;;25.90;43.09;99034.66;5056396;28;45440;-54
2022/07/25 02:51:01;;;;;;;;;17.75;17.25;;;;;25.92;43.35;99034.50;5056368;28;45327;-54
2022/07/25 02:53:26;;;;;;;;;12.50;12.50;;;;;25.91;42.90;99033.66;5056086;28;45934;-53
2022/07/25 02:55:52;;;;;;;;;15.50;12.75;;;;;25.91;42.89;99028.25;5056703;28;45426;-50
2022/07/25 02:58:17;;;;;;;;;14.50;14.50;;;;;25.91;42.85;99030.97;5056377;28;45372;-54
2022/07/25 03:00:43;;;;;;;;;20.25;15.50;;;;;25.90;43.04;99040.06;5055968;28;45502;-52
2022/07/25 03:03:08;;;;;;;;;17.00;16.00;;;;;25.86;42.86;99032.44;5056074;28;46070;-54
2022/07/25 03:05:34;;;;;;;;;15.50;15.50;;;;;25.80;42.84;99030.41;5055495;28;45555;-54
2022/07/25 03:07:59;;;;;;;;;18.50;18.50;;;;;25.76;42.80;99029.88;5056032;28;45467;-54
2022/07/25 03:10:24;;;;;;;;;17.00;17.00;;;;;25.75;42.89;99027.31;5056230;28;45427;-54
2022/07/25 03:12:50;;;;;;;;;16.75;14.50;;;;;25.75;43.38;99020.06;5055639;28;45531;-53
2022/07/25 03:15:15;;;;;;;;;15.00;15.00;;;;;25.78;43.29;99025.16;5055862;28;45365;-55
2022/07/25 03:17:41;;;;;;;;;15.50;13.25;;;;;25.76;43.00;99027.16;5055713;28;45461;-53
2022/07/25 03:20:07;;;;;;;;;14.75;13.75;;;;;25.72;43.63;99023.09;5055952;28;45341;-54
2022/07/25 03:22:33;;;;;;;;;17.25;14.50;;;;;25.67;43.05;99030.81;5055286;28;45382;-53
2022/07/25 03:24:59;;;;;;;;;16.75;16.75;;;;;25.65;43.22;99022.00;5056086;28;45198;-52
2022/07/25 03:27:25;;;;;;;;;14.00;10.75;;;;;25.62;43.30;99027.75;5055951;28;45530;-53
2022/07/25 03:29:51;;;;;;;;;18.00;15.50;;;;;25.58;43.40;99031.75;5054035;28;45563;-54
2022/07/25 03:32:17;;;;;;;;;18.75;15.25;;;;;25.59;43.63;99030.75;5055064;28;45526;-56
2022/07/25 03:34:42;;;;;;;;;17.50;15.00;;;;;25.58;44.28;99031.75;5055877;28;45394;-53
2022/07/25 03:37:08;;;;;;;;;22.50;18.25;;;;;25.58;43.84;99034.44;5055992;28;45460;-54
2022/07/25 03:39:33;;;;;;;;;11.50;11.50;;;;;25.58;43.48;99029.03;5055796;28;45445;-53
2022/07/25 03:41:58;;;;;;;;;19.75;17.75;;;;;25.60;43.28;99035.13;5055046;28;46219;-53
2022/07/25 03:44:24;;;;;;;;;12.75;12.75;;;;;25.60;43.77;99038.69;5055577;28;45483;-53
2022/07/25 03:46:50;;;;;;;;;16.00;16.00;;;;;25.58;43.70;99034.44;5055144;28;45542;-54
2022/07/25 03:49:16;;;;;;;;;14.25;13.50;;;;;25.54;43.66;99036.59;5055847;28;45479;-53
2022/07/25 03:51:41;;;;;;;;;14.00;13.25;;;;;25.52;43.18;99037.78;5054907;28;46489;-53
2022/07/25 03:54:12;;;;;;;;;15.00;14.25;;;;;25.47;43.33;99037.41;5055270;28;45480;-51
2022/07/25 03:56:40;;;;;;;;;15.75;14.25;;;;;25.45;43.74;99040.28;5055506;28;45364;-54
2022/07/25 03:59:07;;;;;;;;;22.25;20.25;;;;;25.44;43.72;99038.56;5055154;28;45513;-53
2022/07/25 04:01:33;;;;;;;;;18.50;18.50;;;;;25.45;44.15;99034.03;5054443;28;45446;-54
2022/07/25 04:03:59;;;;;;;;;19.50;18.25;;;;;25.45;44.12;99039.41;5055301;28;45419;-52
2022/07/25 04:06:25;;;;;;;;;16.75;15.25;;;;;25.44;44.00;99041.28;5055142;28;45372;-54
2022/07/25 04:08:51;;;;;;;;;17.25;16.25;;;;;25.43;43.74;99034.19;5054941;28;45408;-52
2022/07/25 04:11:16;;;;;;;;;17.00;16.00;;;;;25.45;43.80;99037.56;5054421;28;46439;-52
2022/07/25 04:13:42;;;;;;;;;18.00;16.50;;;;;25.47;43.46;99037.41;5054749;28;45356;-54
2022/07/25 04:16:08;;;;;;;;;17.50;17.50;;;;;25.49;43.65;99030.81;5054871;28;45502;-53
2022/07/25 04:18:33;;;;;;;;;17.00;15.25;;;;;25.52;43.95;99043.16;5054728;28;45533;-53
2022/07/25 04:20:59;;;;;;;;;16.50;15.25;;;;;25.53;44.29;99044.88;5054841;28;45351;-53
2022/07/25 04:23:26;;;;;;;;;18.75;16.00;;;;;25.54;44.30;99038.47;5055093;28;45500;-55
2022/07/25 04:25:51;;;;;;;;;17.25;17.25;;;;;25.54;44.16;99047.41;5055161;28;45357;-55
2022/07/25 04:28:16;;;;;;;;;16.25;16.25;;;;;25.57;44.63;99043.56;5055154;28;45522;-55
2022/07/25 04:30:44;;;;;;;;;15.25;14.75;;;;;25.52;44.58;99040.47;5054321;28;45368;-55
2022/07/25 04:33:10;;;;;;;;;22.67;21.67;;;;;25.46;44.57;99039.28;5054305;28;45343;-56
2022/07/25 04:35:35;;;;;;;;;19.75;16.25;;;;;25.42;44.60;99037.88;5054920;28;45352;-55
2022/07/25 04:38:01;;;;;;;;;18.25;16.25;;;;;25.42;44.66;99039.72;5054318;28;45375;-55
2022/07/25 04:40:26;;;;;;;;;18.50;16.50;;;;;25.41;44.88;99043.44;5054763;28;46375;-55
2022/07/25 04:42:52;;;;;;;;;20.75;19.00;;;;;25.41;44.98;99040.72;5054620;28;45400;-55
2022/07/25 04:45:17;;;;;;;;;18.25;18.25;;;;;25.41;45.43;99038.88;5054627;28;45377;-58
2022/07/25 04:47:42;;;;;;;;;20.25;19.00;;;;;25.42;45.05;99037.88;5054460;28;45512;-53
2022/07/25 04:50:08;;;;;;;;;18.00;16.75;;;;;25.41;45.34;99038.03;5054133;28;46274;-54
2022/07/25 04:52:34;;;;;;;;;15.75;15.00;;;;;25.40;45.51;99034.50;5054210;28;45436;-51
2022/07/25 04:54:59;;;;;;;;;17.75;17.25;;;;;25.44;45.54;99035.03;5054543;28;45403;-54
2022/07/25 04:57:24;;;;;;;;;18.00;17.75;;;;;25.45;45.48;99034.88;5052884;28;45619;-55
2022/07/25 04:59:50;;;;;;;;;17.25;17.00;;;;;25.43;45.41;99027.94;5053992;28;45582;-53
2022/07/25 05:02:16;;;;;;;;;18.00;17.75;;;;;25.46;45.24;99035.72;5053833;28;45409;-54
2022/07/25 05:04:41;;;;;;;;;17.50;16.00;;;;;25.50;45.61;99035.22;5054234;28;45497;-53
2022/07/25 05:07:07;;;;;;;;;15.25;15.00;;;;;25.54;45.23;99031.22;5054517;28;45630;-55
2022/07/25 05:09:32;;;;;;;;;22.00;20.67;;;;;25.56;45.20;99039.16;5054102;28;45426;-55
2022/07/25 05:11:58;;;;;;;;;23.33;20.67;;;;;25.59;45.48;99030.75;5054021;28;45442;-55
2022/07/25 05:14:23;;;;;;;;;18.50;18.25;;;;;25.61;45.57;99031.44;5054062;28;45387;-54
2022/07/25 05:16:49;;;;;;;;;22.50;18.00;;;;;25.61;45.52;99031.44;5053720;28;45413;-54
2022/07/25 05:19:15;;;;;;;;;16.50;15.75;;;;;25.65;45.33;99035.53;5054332;28;46166;-55
2022/07/25 05:21:40;;;;;;;;;14.00;13.00;;;;;25.68;45.06;99033.34;5053483;28;45358;-54
2022/07/25 05:24:06;;;;;;;;;18.00;17.00;;;;;25.71;45.00;99030.34;5054340;28;45388;-55
2022/07/25 05:26:31;;;;;;;;;19.00;15.75;;;;;25.77;44.92;99028.00;5053770;28;45323;-60
2022/07/25 05:28:57;;;;;;;;;18.50;18.00;;;;;25.80;44.95;99033.94;5056914;28;45587;-56
2022/07/25 05:31:22;;;;;;;;;22.00;18.50;;;;;25.84;44.53;99029.91;5056654;28;45388;-54
2022/07/25 05:33:48;;;;;;;;;18.50;17.25;;;;;25.87;44.98;99029.59;5057054;28;45621;-55
2022/07/25 05:36:13;;;;;;;;;35.33;33.00;;;;;25.93;44.92;99036.22;5057049;28;45512;-55
2022/07/25 05:38:39;;;;;;;;;23.75;22.75;;;;;25.94;44.75;99036.06;5057084;28;45515;-56
2022/07/25 05:41:04;;;;;;;;;16.75;16.25;;;;;25.95;44.93;99035.03;5057219;28;45439;-58
2022/07/25 05:43:30;;;;;;;;;18.50;17.50;;;;;25.98;44.74;99032.00;5049413;28;45526;-54
2022/07/25 05:46:02;;;;;;;;;8.50;7.75;;;;;26.01;44.24;99028.13;5047201;28;45613;-53
2022/07/25 05:48:28;;;;;;;;;21.75;21.50;;;;;26.02;44.63;99033.38;5046706;28;45483;-51
2022/07/25 05:50:54;;;;;;;;;20.00;16.75;;;;;26.06;44.23;99042.00;5048799;28;45621;-53
2022/07/25 05:53:19;;;;;;;;;21.00;20.75;;;;;26.07;44.50;99039.16;5055966;28;45580;-54
2022/07/25 05:55:45;;;;;;;;;18.25;18.25;;;;;26.13;44.33;99029.56;5056347;28;45702;-54
2022/07/25 05:58:10;;;;;;;;;19.25;18.25;;;;;26.16;44.16;99033.75;5055338;28;45529;-54
2022/07/25 06:00:36;;;;;;;;;19.50;19.00;;;;;26.20;44.34;99035.13;5054643;28;45410;-54
2022/07/25 06:03:01;;;;;;;;;16.50;15.25;;;;;26.27;44.22;99033.50;5040759;28;45457;-54
2022/07/25 06:05:27;;;;;;;;;18.75;17.75;;;;;26.31;44.18;99041.13;5042383;28;45561;-53
2022/07/25 06:07:52;;;;;;;;;17.75;17.75;;;;;26.34;44.02;99035.38;5038836;28;46103;-54
2022/07/25 06:10:18;;;;;;;;;18.50;17.50;;;;;26.37;44.09;99037.78;5039283;28;45711;-54
2022/07/25 06:12:43;;;;;;;;;18.00;18.00;;;;;26.38;44.17;99033.22;5040695;28;45417;-55
2022/07/25 06:15:09;;;;;;;;;15.00;13.50;;;;;26.40;44.14;99028.50;5050620;28;45588;-55
2022/07/25 06:17:34;;;;;;;;;21.75;20.75;;;;;26.41;43.79;99038.31;5048355;28;46321;-55
2022/07/25 06:20:00;;;;;;;;;19.00;18.00;;;;;26.41;43.98;99036.44;5055620;28;45408;-55
2022/07/25 06:22:25;;;;;;;;;17.25;17.25;;;;;26.44;44.25;99037.13;5045298;28;45507;-54
2022/07/25 06:24:51;;;;;;;;;21.25;20.75;;;;;26.45;43.79;99028.00;5036032;28;45455;-54
2022/07/25 06:27:16;;;;;;;;;19.50;17.00;;;;;26.49;44.19;99032.91;5042634;28;45364;-54
2022/07/25 06:29:41;;;;;;;;;22.25;20.00;;;;;26.51;44.09;99028.19;5042839;28;45440;-53
2022/07/25 06:32:07;;;;;;;;;23.25;18.75;;;;;26.52;43.75;99029.88;5042276;28;45342;-53
2022/07/25 06:34:32;;;;;;;;;17.00;17.00;;;;;26.57;43.78;99026.69;5040163;28;45586;-54
2022/07/25 06:36:58;;;;;;;;;17.00;17.00;;;;;26.62;43.50;99032.44;5050643;27;45683;-53
2022/07/25 06:39:24;;;;;;;;;16.75;15.25;;;;;26.63;43.80;99026.03;5035311;28;45564;-54
2022/07/25 06:41:50;;;;;;;;;20.25;18.50;;;;;26.69;43.58;99034.31;5038728;28;45597;-55
2022/07/25 06:44:15;;;;;;;;;20.75;20.25;;;;;26.72;43.13;99038.53;5054547;28;45467;-53
2022/07/25 06:46:41;;;;;;;;;23.25;21.75;;;;;26.73;43.03;99030.25;5045738;28;45492;-54
2022/07/25 06:49:06;;;;;;;;;15.50;15.50;;;;;26.74;42.81;99026.56;5046124;28;45571;-54
2022/07/25 06:51:31;;;;;;;;;15.25;14.00;;;;;26.74;42.75;99031.97;5049145;28;45560;-51
2022/07/25 06:53:57;;;;;;;;;17.75;17.00;;;;;26.73;42.97;99029.41;5050074;28;45458;-54
2022/07/25 06:56:23;;;;;;;;;20.00;17.50;;;;;26.72;43.04;99022.31;5036041;28;45417;-52
2022/07/25 06:58:48;;;;;;;;;21.25;20.25;;;;;26.73;42.97;99024.00;5045881;28;45473;-54
2022/07/25 07:01:14;;;;;;;;;19.25;18.75;;;;;26.76;43.12;99029.94;5034443;28;45500;-65
2022/07/25 07:03:41;;;;;;;;;18.75;18.75;;;;;26.79;43.29;99033.34;5053070;28;45555;-63
2022/07/25 07:06:08;;;;;;;;;19.00;17.00;;;;;26.80;43.28;99038.56;5050663;28;46304;-53
2022/07/25 07:08:34;;;;;;;;;17.25;14.75;;;;;26.78;43.20;99029.78;5046072;28;45461;-52
2022/07/25 07:11:00;;;;;;;;;19.00;19.00;;;;;26.77;43.28;99031.63;5051882;28;45495;-52
2022/07/25 07:13:25;;;;;;;;;20.50;18.75;;;;;26.82;43.13;99027.56;5041196;28;45445;-51
2022/07/25 07:15:51;;;;;;;;;20.25;20.00;;;;;26.84;42.77;99018.28;5054399;28;46477;-52
2022/07/25 07:18:18;;;;;;;;;20.50;18.50;;;;;26.86;42.52;99020.81;5054060;28;45415;-48
2022/07/25 07:20:44;;;;;;;;;20.25;18.75;;;;;26.89;42.67;99015.91;5053166;28;45377;-52
2022/07/25 07:23:09;;;;;;;;;24.75;22.00;;;;;26.93;42.72;99013.72;5052909;28;45599;-52
2022/07/25 07:25:35;;;;;;;;;19.25;18.75;;;;;26.97;42.28;99004.28;5054278;28;46381;-52
2022/07/25 07:28:01;;;;;;;;;22.00;20.33;;;;;27.01;42.12;99009.19;5041074;28;45357;-53
2022/07/25 07:30:26;;;;;;;;;17.25;15.50;;;;;27.04;41.99;99011.56;5055009;28;45368;-52
2022/07/25 07:32:52;;;;;;;;;22.00;19.50;;;;;27.07;41.91;99010.38;5053679;28;45465;-48
2022/07/25 07:35:18;;;;;;;;;21.00;19.00;;;;;27.10;41.87;99007.34;5054216;28;46464;-50
2022/07/25 07:37:45;;;;;;;;;23.33;21.33;;;;;27.09;41.93;99002.94;5053133;28;45444;-53
2022/07/25 07:40:12;;;;;;;;;17.00;16.25;;;;;27.07;41.51;99003.09;5053807;28;45411;-52
2022/07/25 07:42:40;;;;;;;;;22.00;19.25;;;;;27.06;41.95;99008.69;5040461;28;45554;-51
2022/07/25 07:45:20;;;;;;;;;21.50;20.25;;;;;27.07;42.00;99011.22;5033830;28;46091;-52
2022/07/25 07:47:48;;;;;;;;;18.00;16.75;;;;;27.07;41.75;99007.66;5041036;28;45417;-52
2022/07/25 07:50:21;;;;;;;;;20.50;19.50;;;;;27.07;42.03;99015.78;5054412;28;45174;-53
2022/07/25 07:52:48;;;;;;;;;16.75;15.75;;;;;27.07;41.80;99010.38;5054022;28;45462;-53
2022/07/25 07:57:58;;;;;;;;;22.75;21.75;;;;;27.04;41.18;99011.56;5045904;28;45433;-50
2022/07/25 08:00:29;;;;;;;;;20.50;18.25;;;;;27.04;41.09;99010.72;5052197;28;45354;-52
2022/07/25 08:02:56;;;;;;;;;19.75;18.75;;;;;27.04;41.32;99014.25;5052876;28;45469;-51
2022/07/25 08:05:25;;;;;;;;;18.75;17.75;;;;;27.06;40.78;99005.97;5053840;28;46416;-52
2022/07/25 08:07:51;;;;;;;;;26.00;21.50;;;;;27.08;41.42;99004.78;5054219;28;45393;-52
2022/07/25 08:10:22;;;;;;;;;25.00;19.25;;;;;27.13;41.26;99003.44;5054057;28;45396;-52
2022/07/25 08:12:48;;;;;;;;;15.75;14.75;;;;;27.16;40.83;99005.78;5040169;28;45498;-53
2022/07/25 08:15:14;;;;;;;;;21.33;19.67;;;;;27.20;40.10;98993.63;5053378;28;45542;-52
2022/07/25 08:17:40;;;;;;;;;19.25;18.25;;;;;27.24;40.43;98995.81;5046832;28;45452;-53
2022/07/25 08:20:07;;;;;;;;;20.00;20.00;;;;;27.31;39.94;98985.16;5042730;28;45464;-53
2022/07/25 08:22:44;;;;;;;;;18.75;17.00;;;;;27.41;39.68;98985.81;5040167;28;45433;-53
2022/07/25 08:25:13;;;;;;;;;21.75;19.50;;;;;27.48;39.18;98981.41;5036619;28;46363;-53
2022/07/25 08:27:38;;;;;;;;;19.33;19.33;;;;;27.56;40.03;98981.38;5054020;28;45442;-53
2022/07/25 08:30:06;;;;;;;;;16.50;16.50;;;;;27.64;39.44;98997.66;5053402;28;45516;-52
2022/07/25 08:32:32;;;;;;;;;22.00;19.00;;;;;27.71;39.14;98997.81;5053599;28;45507;-52
2022/07/25 08:34:58;;;;;;;;;20.50;16.25;;;;;27.74;39.83;98990.19;5027315;28;46755;-50
2022/07/25 08:37:24;;;;;;;;;21.75;20.00;;;;;27.80;39.41;98996.78;5034703;27;45669;-52
2022/07/25 08:39:51;;;;;;;;;16.33;16.33;;;;;27.88;39.40;98998.59;5045537;28;45440;-52
2022/07/25 08:42:20;;;;;;;;;18.50;16.75;;;;;27.92;39.25;98992.66;5040967;28;45494;-52
2022/07/25 08:45:06;;;;;;;;;18.00;16.25;;;;;28.00;39.18;98991.75;5047431;28;46468;-52
2022/07/25 08:47:32;;;;;;;;;15.00;14.00;;;;;28.07;39.78;98985.47;5047290;28;45574;-58
2022/07/25 08:49:58;;;;;;;;;21.50;19.25;;;;;28.15;40.29;98987.31;5050432;28;45600;-58
2022/07/25 08:52:23;;;;;;;;;18.00;16.50;;;;;28.22;40.36;98982.06;5042419;28;45476;-58
2022/07/25 08:54:49;;;;;;;;;15.25;14.00;;;;;28.29;40.60;98978.47;5049412;28;46599;-58
2022/07/25 08:57:14;;;;;;;;;19.75;17.00;;;;;28.36;40.31;98979.44;5046093;28;45499;-58
2022/07/25 08:59:40;;;;;;;;;18.25;17.00;;;;;28.44;40.43;98973.97;5044773;28;45532;-57
2022/07/25 09:02:09;;;;;;;;;18.00;15.00;;;;;28.55;40.14;98975.41;5038012;28;45423;-57
2022/07/25 09:04:35;;;;;;;;;18.50;17.50;;;;;28.67;39.49;98971.25;5037497;28;46556;-58
2022/07/25 09:07:03;;;;;;;;;21.25;18.00;;;;;28.78;38.85;98972.72;5049818;28;45331;-58
2022/07/25 09:09:34;;;;;;;;;18.00;16.00;;;;;28.90;39.56;98965.03;5043786;28;45589;-58
2022/07/25 09:12:00;;;;;;;;;19.75;18.75;;;;;29.01;39.20;98956.44;5046552;28;45376;-57
2022/07/25 09:14:27;;;;;;;;;17.75;16.50;;;;;29.09;39.05;98954.50;5043599;28;45496;-57
2022/07/25 09:16:52;;;;;;;;;17.50;17.50;;;;;29.19;38.91;98959.66;5036411;28;45522;-57
2022/07/25 09:19:21;;;;;;;;;19.75;19.75;;;;;29.31;38.36;98968.22;5036493;28;45439;-58
2022/07/25 09:22:01;;;;;;;;;20.25;17.25;;;;;29.41;38.38;98960.69;5036166;28;45460;-58
2022/07/25 09:24:27;;;;;;;;;19.50;17.00;;;;;29.49;38.93;98966.03;5036059;28;46562;-58
2022/07/25 09:26:58;;;;;;;;;19.25;18.00;;;;;29.59;38.40;98957.59;5043149;28;45475;-58
2022/07/25 09:29:32;;;;;;;;;17.50;16.25;;;;;29.71;37.98;98959.66;5049207;28;45426;-58
2022/07/25 09:32:00;;;;;;;;;17.50;17.50;;;;;29.83;36.61;98971.75;5041161;28;45466;-58
2022/07/25 09:34:36;;;;;;;;;16.00;15.75;;;;;29.94;36.83;98975.03;5040126;28;45624;-58
2022/07/25 09:37:05;;;;;;;;;19.75;18.50;;;;;30.02;36.29;98964.06;5056237;28;45448;-58
2022/07/25 09:39:45;;;;;;;;;17.75;16.25;;;;;30.07;36.84;98975.25;5049754;28;45370;-58
2022/07/25 09:42:18;;;;;;;;;16.50;15.75;;;;;30.15;36.61;98959.69;5052125;28;45452;-58
2022/07/25 09:44:55;;;;;;;;;20.00;19.00;;;;;30.23;36.66;98952.41;5035181;28;46132;-57
2022/07/25 09:47:21;;;;;;;;;14.00;14.00;;;;;30.32;36.33;98941.25;5036017;28;45345;-58
2022/07/25 09:49:46;;;;;;;;;12.50;11.25;;;;;30.43;35.60;98935.28;5042931;28;45677;-58
2022/07/25 09:52:12;;;;;;;;;14.25;14.25;;;;;30.54;35.58;98939.38;5037882;28;45461;-56
2022/07/25 09:54:39;;;;;;;;;20.00;18.75;;;;;30.66;35.11;98931.59;5050240;28;45384;-58
2022/07/25 09:57:05;;;;;;;;;20.00;19.50;;;;;30.73;34.71;98949.66;5040770;28;45499;-58
2022/07/25 09:59:33;;;;;;;;;16.50;15.50;;;;;30.79;34.58;98935.28;5034011;28;47161;-57
2022/07/25 10:02:23;;;;;;;;;20.50;18.00;;;;;30.89;34.06;98929.50;5042931;28;45541;-58
2022/07/25 10:05:00;;;;;;;;;12.75;12.50;;;;;31.06;33.58;98932.78;5041041;28;46602;-58
2022/07/25 10:07:26;;;;;;;;;17.00;17.00;;;;;31.17;33.37;98926.84;5041434;28;45445;-59
2022/07/25 10:09:54;;;;;;;;;14.25;14.00;;;;;31.27;33.50;98924.59;5044969;28;45377;-58
2022/07/25 10:12:22;;;;;;;;;22.00;20.50;;;;;31.32;33.42;98916.69;5053758;27;45316;-57
2022/07/25 10:15:23;;;;;;;;;16.25;14.25;;;;;31.41;33.83;98914.63;5043753;28;45498;-57
2022/07/25 10:17:50;;;;;;;;;16.75;16.00;;;;;31.49;33.65;98911.75;4992782;28;45507;-59
2022/07/25 10:20:27;;;;;;;;;20.75;18.25;;;;;31.61;33.70;98906.56;5026722;28;45348;-57
2022/07/25 10:22:52;;;;;;;;;18.00;17.25;;;;;31.71;33.84;98910.63;5035593;28;45767;-57
2022/07/25 10:25:19;;;;;;;;;17.50;16.75;;;;;31.82;33.08;98917.44;5037996;28;45431;-57
2022/07/25 10:27:51;;;;;;;;;17.25;16.00;;;;;31.94;32.97;98891.25;5047068;28;45529;-57
2022/07/25 10:30:24;;;;;;;;;17.00;16.50;;;;;32.06;32.38;98894.22;5049485;28;45434;-57
2022/07/25 10:33:02;;;;;;;;;12.25;12.25;;;;;32.16;32.14;98903.72;5035852;28;45348;-57
2022/07/25 10:35:28;;;;;;;;;18.75;16.50;;;;;32.27;31.82;98888.66;5048394;28;47047;-57
2022/07/25 10:37:55;;;;;;;;;16.50;14.75;;;;;32.38;31.56;98889.94;5055095;27;45353;-57
2022/07/25 10:40:28;;;;;;;;;19.75;18.75;;;;;32.52;29.50;98894.38;5045122;28;45433;-57
2022/07/25 10:43:20;;;;;;;;;18.50;15.25;;;;;32.67;30.36;98884.13;5043044;28;45358;-57
2022/07/25 10:45:51;;;;;;;;;17.25;16.75;;;;;32.79;29.66;98873.44;5055299;28;45245;-57
2022/07/25 10:48:37;;;;;;;;;15.50;15.50;;;;;32.97;29.91;98876.38;5055061;28;45439;-58
2022/07/25 10:51:06;;;;;;;;;14.50;14.50;;;;;33.17;29.46;98860.81;5054092;27;45415;-58
2022/07/25 10:53:32;;;;;;;;;16.00;14.25;;;;;33.38;28.79;98865.19;5054849;28;45437;-58
2022/07/25 10:56:20;;;;;;;;;13.25;12.50;;;;;33.61;27.79;98871.03;5046065;28;45400;-58
2022/07/25 10:58:49;;;;;;;;;17.75;17.75;;;;;33.77;27.64;98864.25;5052406;28;45438;-58
2022/07/25 11:01:23;;;;;;;;;15.75;15.25;;;;;33.91;27.82;98878.72;5052603;28;45391;-58
2022/07/25 11:03:50;;;;;;;;;14.00;14.00;;;;;33.99;26.66;98862.06;5040679;28;45571;-58
2022/07/25 11:06:27;;;;;;;;;17.25;15.00;;;;;34.04;25.84;98872.34;5054384;28;45999;-58
2022/07/25 11:08:56;;;;;;;;;16.50;15.25;;;;;34.11;25.50;98857.56;5054222;28;45455;-58
2022/07/25 11:11:34;;;;;;;;;12.00;11.50;;;;;34.16;26.02;98852.28;5051227;28;45411;-58
2022/07/25 11:14:00;;;;;;;;;16.00;14.50;;;;;34.18;25.87;98841.97;5043726;28;45455;-58
2022/07/25 11:16:26;;;;;;;;;13.00;12.75;;;;;34.24;26.27;98849.28;5037603;28;45469;-58
2022/07/25 11:18:53;;;;;;;;;13.75;12.00;;;;;34.30;26.57;98837.50;5034173;28;45393;-58